Time;durP1;ratioP1;P1;durP2;ratioP2;P2;SDS_P1;SDS_P2;PMS_P1;PMS_P2;Temp;Humidity;BMP_temperature;BMP_pressure;BME280_temperature;BME280_humidity;BME280_pressure;Samples;Min_cycle;Max_cycle;Signal;HPM_P1;HPM_P2
2023/04/02 00:00:15;;;;;;;;;;;8.80;99.90;;;;;;5016023;28;19909;-86
2023/04/02 00:02:53;;;;;;;;;;;8.70;99.90;;;;;;5015938;28;19924;-86
2023/04/02 00:05:29;;;;;;;;;;;8.70;99.90;;;;;;5016274;28;19915;-87
2023/04/02 00:07:56;;;;;;;;;;;8.70;99.90;;;;;;5033850;28;19955;-87
2023/04/02 00:10:30;;;;;;;;;;;8.70;99.90;;;;;;5016601;28;19910;-87
2023/04/02 00:12:59;;;;;;;;;;;8.70;99.90;;;;;;5015998;28;19909;-87
2023/04/02 00:15:25;;;;;;;;;;;8.60;99.90;;;;;;5016077;28;20000;-87
2023/04/02 00:17:50;;;;;;;;;;;8.60;99.90;;;;;;5015898;28;19947;-87
2023/04/02 00:20:17;;;;;;;;;;;8.60;99.90;;;;;;5000358;28;20321;-87
2023/04/02 00:22:43;;;;;;;;;;;8.60;99.90;;;;;;5020323;28;19925;-90
2023/04/02 00:25:12;;;;;;;;;;;8.50;99.90;;;;;;5020632;28;19932;-89
2023/04/02 00:27:38;;;;;;;;;;;8.50;99.90;;;;;;5017093;28;19913;-90
2023/04/02 00:30:03;;;;;;;;;;;8.50;99.90;;;;;;5017238;28;19936;-91
2023/04/02 00:32:33;;;;;;;;;;;8.50;99.90;;;;;;5016867;28;19909;-91
2023/04/02 00:34:59;;;;;;;;;;;8.50;99.90;;;;;;5016800;28;20354;-90
2023/04/02 00:37:26;;;;;;;;;;;8.50;99.90;;;;;;5016696;28;19910;-90
2023/04/02 00:40:00;;;;;;;;;;;8.40;99.90;;;;;;5016233;28;19913;-86
2023/04/02 00:42:28;;;;;;;;;;;8.40;99.90;;;;;;5016006;28;19933;-86
2023/04/02 00:44:54;;;;;;;;;;;8.40;99.90;;;;;;5015747;28;19984;-86
2023/04/02 00:47:20;;;;;;;;;;;8.40;99.90;;;;;;4999530;28;20024;-86
2023/04/02 00:49:47;;;;;;;;;;;8.40;99.90;;;;;;5015922;28;20394;-86
2023/04/02 00:52:15;;;;;;;;;;;8.40;99.90;;;;;;5015576;28;19913;-86
2023/04/02 00:54:49;;;;;;;;;;;8.40;99.90;;;;;;5015627;28;19909;-86
2023/04/02 00:57:24;;;;;;;;;;;8.40;99.90;;;;;;5016242;28;20350;-87
2023/04/02 00:59:58;;;;;;;;;;;8.40;99.90;;;;;;5015968;28;19917;-87
2023/04/02 01:02:31;;;;;;;;;;;8.40;99.90;;;;;;5016011;28;19910;-87
2023/04/02 01:05:01;;;;;;;;;;;8.30;99.90;;;;;;5015777;28;19910;-87
2023/04/02 01:07:45;;;;;;;;;;;8.40;99.90;;;;;;5015937;28;20385;-87
2023/04/02 01:10:23;;;;;;;;;;;8.40;99.90;;;;;;5015412;28;19963;-87
2023/04/02 01:13:08;;;;;;;;;;;8.30;99.90;;;;;;5015781;28;19916;-87
2023/04/02 01:16:00;;;;;;;;;;;8.30;99.90;;;;;;5015618;28;19932;-87
2023/04/02 01:18:32;;;;;;;;;;;8.30;99.90;;;;;;4993580;28;19914;-87
2023/04/02 01:20:58;;;;;;;;;;;8.20;99.90;;;;;;5014933;28;19968;-87
2023/04/02 01:23:34;;;;;;;;;;;8.20;99.90;;;;;;5016403;28;19910;-87
2023/04/02 01:26:02;;;;;;;;;;;8.20;99.90;;;;;;5015175;28;20381;-88
2023/04/02 01:28:47;;;;;;;;;;;8.20;99.90;;;;;;5015558;28;20008;-90
2023/04/02 01:31:16;;;;;;;;;;;8.20;99.90;;;;;;5040752;28;19901;-90
2023/04/02 01:33:41;;;;;;;;;;;8.10;99.90;;;;;;5039326;28;19901;-90
2023/04/02 01:36:14;;;;;;;;;;;8.10;99.90;;;;;;5040212;28;19908;-90
2023/04/02 01:38:44;;;;;;;;;;;8.10;99.90;;;;;;5040054;28;19913;-89
2023/04/02 01:41:19;;;;;;;;;;;8.10;99.90;;;;;;5036883;28;19910;-89
2023/04/02 01:43:48;;;;;;;;;;;8.10;99.90;;;;;;5036029;28;20004;-89
2023/04/02 01:46:25;;;;;;;;;;;8.00;99.90;;;;;;5025199;28;19917;-87
2023/04/02 01:48:51;;;;;;;;;;;8.00;99.90;;;;;;5014726;28;19914;-86
2023/04/02 01:51:36;;;;;;;;;;;8.00;99.90;;;;;;4998343;28;19959;-87
2023/04/02 01:54:03;;;;;;;;;;;8.00;99.90;;;;;;5014628;28;19949;-86
2023/04/02 01:56:29;;;;;;;;;;;8.00;99.90;;;;;;5014827;28;19917;-86
2023/04/02 01:58:56;;;;;;;;;;;8.00;99.90;;;;;;4998115;28;19913;-87
2023/04/02 02:01:23;;;;;;;;;;;8.00;99.90;;;;;;5015485;28;20008;-85
2023/04/02 02:03:49;;;;;;;;;;;7.90;99.90;;;;;;5015326;28;19924;-85
2023/04/02 02:06:16;;;;;;;;;;;7.90;99.90;;;;;;4997864;28;19918;-86
2023/04/02 02:08:57;;;;;;;;;;;7.90;99.90;;;;;;5013968;28;19913;-85
2023/04/02 02:11:25;;;;;;;;;;;7.80;99.90;;;;;;5013945;28;19913;-85
2023/04/02 02:13:56;;;;;;;;;;;7.80;99.90;;;;;;5013995;28;19945;-85
2023/04/02 02:16:22;;;;;;;;;;;7.80;99.90;;;;;;5013846;28;19918;-85
2023/04/02 02:18:49;;;;;;;;;;;7.70;99.90;;;;;;5015112;28;19910;-87
2023/04/02 02:21:35;;;;;;;;;;;7.70;99.90;;;;;;5014005;28;19925;-87
2023/04/02 02:24:01;;;;;;;;;;;7.70;99.90;;;;;;5014392;28;19917;-87
2023/04/02 02:26:28;;;;;;;;;;;7.70;99.90;;;;;;4997933;28;19921;-87
2023/04/02 02:28:55;;;;;;;;;;;7.70;99.90;;;;;;5014372;28;19920;-87
2023/04/02 02:31:26;;;;;;;;;;;7.70;99.90;;;;;;5014301;28;19909;-86
2023/04/02 02:33:57;;;;;;;;;;;7.70;99.90;;;;;;5014250;28;19917;-87
2023/04/02 02:36:41;;;;;;;;;;;7.70;99.90;;;;;;5014063;28;20306;-85
2023/04/02 02:39:30;;;;;;;;;;;7.70;99.90;;;;;;5014731;28;19916;-85
2023/04/02 02:41:55;;;;;;;;;;;7.70;99.90;;;;;;5015866;28;19917;-85
2023/04/02 02:44:25;;;;;;;;;;;7.70;99.90;;;;;;5012522;28;19910;-85
2023/04/02 02:46:53;;;;;;;;;;;7.70;99.90;;;;;;5016759;28;20313;-86
2023/04/02 02:49:21;;;;;;;;;;;7.70;99.90;;;;;;5028298;28;20281;-85
2023/04/02 02:51:49;;;;;;;;;;;7.70;99.90;;;;;;5016886;28;19915;-85
2023/04/02 02:54:16;;;;;;;;;;;7.60;99.90;;;;;;5033474;28;19909;-87
2023/04/02 02:56:45;;;;;;;;;;;7.60;99.90;;;;;;5018932;28;20274;-88
2023/04/02 02:59:13;;;;;;;;;;;7.60;99.90;;;;;;5035517;28;20000;-88
2023/04/02 03:01:39;;;;;;;;;;;7.60;99.90;;;;;;5034607;28;19905;-87
2023/04/02 03:04:05;;;;;;;;;;;7.60;99.90;;;;;;5000479;28;19959;-88
2023/04/02 03:06:31;;;;;;;;;;;7.60;99.90;;;;;;5013506;28;19910;-87
2023/04/02 03:09:10;;;;;;;;;;;7.60;99.90;;;;;;4997287;28;19968;-90
2023/04/02 03:11:46;;;;;;;;;;;7.50;99.90;;;;;;5014185;28;20000;-91
2023/04/02 03:14:20;;;;;;;;;;;7.50;99.90;;;;;;5013960;28;19951;-89
2023/04/02 03:16:48;;;;;;;;;;;7.50;99.90;;;;;;5000985;28;20312;-90
2023/04/02 03:19:16;;;;;;;;;;;7.50;99.90;;;;;;5016717;28;19909;-91
2023/04/02 03:21:42;;;;;;;;;;;7.50;99.90;;;;;;5017022;28;19921;-90
2023/04/02 03:24:26;;;;;;;;;;;7.50;99.90;;;;;;5017429;28;19910;-90
2023/04/02 03:26:55;;;;;;;;;;;7.40;99.90;;;;;;5014103;28;19909;-91
2023/04/02 03:29:21;;;;;;;;;;;7.40;99.90;;;;;;5016254;28;19913;-89
2023/04/02 03:31:53;;;;;;;;;;;7.30;99.90;;;;;;5014013;28;19910;-91
2023/04/02 03:34:22;;;;;;;;;;;7.30;99.90;;;;;;5000207;28;20278;-90
2023/04/02 03:36:56;;;;;;;;;;;7.30;99.90;;;;;;4993793;28;20359;-90
2023/04/02 03:39:30;;;;;;;;;;;7.20;99.90;;;;;;4997157;28;20385;-89
2023/04/02 03:41:57;;;;;;;;;;;7.20;99.90;;;;;;4994586;28;19964;-85
2023/04/02 03:44:26;;;;;;;;;;;7.20;99.90;;;;;;5029557;28;20100;-85
2023/04/02 03:46:56;;;;;;;;;;;7.20;99.90;;;;;;5011948;28;19910;-85
2023/04/02 03:49:51;;;;;;;;;;;7.20;99.90;;;;;;5015365;28;19917;-85
2023/04/02 03:52:21;;;;;;;;;;;7.10;99.90;;;;;;4993671;28;19959;-85
2023/04/02 03:54:46;;;;;;;;;;;7.10;99.90;;;;;;4996618;28;19909;-86
2023/04/02 03:57:35;;;;;;;;;;;7.10;99.90;;;;;;5036503;28;19909;-86
2023/04/02 04:00:06;;;;;;;;;;;7.10;99.90;;;;;;5018083;28;19936;-92
2023/04/02 04:02:41;;;;;;;;;;;7.10;99.90;;;;;;5021742;28;19980;-91
2023/04/02 04:05:17;;;;;;;;;;;7.10;99.90;;;;;;5020821;28;20336;-91
2023/04/02 04:07:43;;;;;;;;;;;7.10;99.90;;;;;;5019253;28;19916;-89
2023/04/02 04:10:15;;;;;;;;;;;7.00;99.90;;;;;;5020902;28;20367;-91
2023/04/02 04:12:43;;;;;;;;;;;7.10;99.90;;;;;;5017710;28;19913;-90
2023/04/02 04:15:14;;;;;;;;;;;7.10;99.90;;;;;;5018401;28;19909;-85
2023/04/02 04:17:56;;;;;;;;;;;7.00;99.90;;;;;;5016012;28;19933;-85
2023/04/02 04:20:28;;;;;;;;;;;7.00;99.90;;;;;;5019104;28;19967;-85
2023/04/02 04:22:54;;;;;;;;;;;7.00;99.90;;;;;;4999710;28;19929;-85
2023/04/02 04:25:24;;;;;;;;;;;6.90;99.90;;;;;;4999108;28;19988;-85
2023/04/02 04:27:52;;;;;;;;;;;6.90;99.90;;;;;;4995948;28;20395;-85
2023/04/02 04:30:24;;;;;;;;;;;6.90;99.90;;;;;;4990925;28;19910;-85
2023/04/02 04:32:57;;;;;;;;;;;6.90;99.90;;;;;;4996257;28;19910;-88
2023/04/02 04:35:25;;;;;;;;;;;6.90;99.90;;;;;;4999744;28;19913;-87
2023/04/02 04:38:03;;;;;;;;;;;6.90;99.90;;;;;;4994199;28;19933;-87
2023/04/02 04:40:30;;;;;;;;;;;6.80;99.90;;;;;;4996522;28;19914;-87
2023/04/02 04:42:59;;;;;;;;;;;6.80;99.90;;;;;;4996278;28;19936;-87
2023/04/02 04:45:27;;;;;;;;;;;6.80;99.90;;;;;;4996347;28;20008;-87
2023/04/02 04:47:59;;;;;;;;;;;6.80;99.90;;;;;;4996052;28;19914;-87
2023/04/02 04:50:29;;;;;;;;;;;6.80;99.90;;;;;;4999365;28;19909;-85
2023/04/02 04:52:55;;;;;;;;;;;6.70;99.90;;;;;;5017265;28;20068;-85
2023/04/02 04:55:27;;;;;;;;;;;6.70;99.90;;;;;;4996696;28;20025;-85
2023/04/02 04:57:59;;;;;;;;;;;6.80;99.90;;;;;;4999222;28;19917;-85
2023/04/02 05:00:37;;;;;;;;;;;6.70;99.90;;;;;;4999013;28;20393;-85
2023/04/02 05:03:09;;;;;;;;;;;6.70;99.90;;;;;;5016389;28;19975;-84
2023/04/02 05:05:37;;;;;;;;;;;6.70;99.90;;;;;;4998848;28;19972;-85
2023/04/02 05:08:05;;;;;;;;;;;6.70;99.90;;;;;;5007648;28;19922;-85
2023/04/02 05:10:34;;;;;;;;;;;6.70;99.90;;;;;;5009315;28;20013;-85
2023/04/02 05:13:06;;;;;;;;;;;6.70;99.90;;;;;;5016174;28;19909;-84
2023/04/02 05:15:40;;;;;;;;;;;6.60;99.90;;;;;;5000406;28;19914;-85
2023/04/02 05:18:23;;;;;;;;;;;6.60;99.90;;;;;;5001546;28;20371;-85
2023/04/02 05:20:52;;;;;;;;;;;6.60;99.90;;;;;;5003604;28;19917;-85
2023/04/02 05:23:22;;;;;;;;;;;6.50;99.90;;;;;;5028848;28;20368;-85
2023/04/02 05:25:59;;;;;;;;;;;6.50;99.90;;;;;;5027418;28;19909;-85
2023/04/02 05:28:35;;;;;;;;;;;6.50;99.90;;;;;;5015896;28;20175;-90
2023/04/02 05:31:12;;;;;;;;;;;6.50;99.90;;;;;;5015418;28;19932;-90
2023/04/02 05:33:39;;;;;;;;;;;6.40;99.90;;;;;;5016005;28;20362;-90
2023/04/02 05:36:17;;;;;;;;;;;6.40;99.90;;;;;;5049250;28;19915;-91
2023/04/02 05:38:45;;;;;;;;;;;6.40;99.90;;;;;;5019339;28;19909;-87
2023/04/02 05:41:19;;;;;;;;;;;6.40;99.90;;;;;;5036277;28;19916;-88
2023/04/02 05:43:47;;;;;;;;;;;6.40;99.90;;;;;;5015091;28;19987;-87
2023/04/02 05:46:15;;;;;;;;;;;6.30;99.90;;;;;;5031959;28;19964;-86
2023/04/02 05:48:46;;;;;;;;;;;6.30;99.90;;;;;;5017574;28;20384;-86
2023/04/02 05:51:17;;;;;;;;;;;6.30;99.90;;;;;;5017875;28;20385;-87
2023/04/02 05:53:50;;;;;;;;;;;6.30;99.90;;;;;;5018028;28;19909;-89
2023/04/02 05:56:20;;;;;;;;;;;6.30;99.90;;;;;;5023884;28;19913;-90
2023/04/02 05:58:51;;;;;;;;;;;6.20;99.90;;;;;;5018526;28;20401;-90
2023/04/02 06:01:37;;;;;;;;;;;6.20;99.90;;;;;;5027570;28;19916;-85
2023/04/02 06:04:29;;;;;;;;;;;6.20;99.90;;;;;;5023969;28;19909;-85
2023/04/02 06:07:08;;;;;;;;;;;6.20;99.90;;;;;;4999406;28;19909;-86
2023/04/02 06:09:44;;;;;;;;;;;6.20;99.90;;;;;;5014540;28;19914;-90
2023/04/02 06:12:21;;;;;;;;;;;6.20;99.90;;;;;;5018112;28;19909;-89
2023/04/02 06:14:46;;;;;;;;;;;6.20;99.90;;;;;;5018162;28;20015;-87
2023/04/02 06:17:16;;;;;;;;;;;6.10;99.90;;;;;;4999284;28;19921;-88
2023/04/02 06:19:42;;;;;;;;;;;6.10;99.90;;;;;;4997642;28;19914;-85
2023/04/02 06:22:17;;;;;;;;;;;6.10;99.90;;;;;;5013645;28;19968;-85
2023/04/02 06:24:44;;;;;;;;;;;6.10;99.90;;;;;;5016846;28;19909;-85
2023/04/02 06:27:13;;;;;;;;;;;6.10;99.90;;;;;;5018410;28;19913;-85
2023/04/02 06:29:42;;;;;;;;;;;6.10;99.90;;;;;;5013302;28;19924;-89
2023/04/02 06:32:09;;;;;;;;;;;6.10;99.90;;;;;;5014519;28;19917;-91
2023/04/02 06:34:36;;;;;;;;;;;6.10;99.90;;;;;;5014772;28;20298;-89
2023/04/02 06:37:16;;;;;;;;;;;6.00;99.90;;;;;;5017766;28;19909;-89
2023/04/02 06:39:41;;;;;;;;;;;6.00;99.90;;;;;;5017605;28;19913;-91
2023/04/02 06:42:18;;;;;;;;;;;6.00;99.90;;;;;;5017821;28;19913;-89
2023/04/02 06:44:43;;;;;;;;;;;5.90;99.90;;;;;;5018150;28;19909;-89
2023/04/02 06:50:22;;;;;;;;;;;5.90;99.90;;;;;;5035119;28;19920;-88
2023/04/02 06:52:49;;;;;;;;;;;5.80;99.90;;;;;;5017662;28;19991;-88
2023/04/02 06:55:24;;;;;;;;;;;5.80;99.90;;;;;;5017102;28;19909;-85
2023/04/02 06:57:50;;;;;;;;;;;5.80;99.90;;;;;;5016476;28;19916;-85
2023/04/02 07:00:24;;;;;;;;;;;5.80;99.90;;;;;;5000402;28;19917;-85
2023/04/02 07:02:53;;;;;;;;;;;5.80;99.90;;;;;;5034409;28;19932;-88
2023/04/02 07:05:19;;;;;;;;;;;5.80;99.90;;;;;;5017049;28;19956;-87
2023/04/02 07:07:45;;;;;;;;;;;5.80;99.90;;;;;;5035141;28;20321;-87
2023/04/02 07:10:11;;;;;;;;;;;5.70;99.90;;;;;;5022052;28;20277;-88
2023/04/02 07:12:36;;;;;;;;;;;5.70;99.90;;;;;;5026336;28;19909;-88
2023/04/02 07:15:02;;;;;;;;;;;5.70;99.90;;;;;;5020723;28;19920;-88
2023/04/02 07:17:28;;;;;;;;;;;5.70;99.90;;;;;;5002337;28;19913;-88
2023/04/02 07:19:54;;;;;;;;;;;5.70;99.90;;;;;;5016920;28;19913;-86
2023/04/02 07:22:20;;;;;;;;;;;5.70;99.90;;;;;;4998431;28;19925;-87
2023/04/02 07:24:45;;;;;;;;;;;5.60;99.90;;;;;;5016790;28;20010;-86
2023/04/02 07:27:11;;;;;;;;;;;5.60;99.90;;;;;;5000256;28;19914;-87
2023/04/02 07:29:41;;;;;;;;;;;5.80;99.90;;;;;;5032633;28;20358;-86
2023/04/02 07:32:10;;;;;;;;;;;5.70;99.90;;;;;;5037274;28;19941;-88
2023/04/02 07:34:36;;;;;;;;;;;5.60;99.90;;;;;;5037280;28;20258;-90
2023/04/02 07:37:02;;;;;;;;;;;5.70;99.90;;;;;;5021538;28;19918;-86
2023/04/02 07:39:27;;;;;;;;;;;5.70;99.90;;;;;;5019844;28;19913;-86
2023/04/02 07:41:57;;;;;;;;;;;5.50;99.90;;;;;;5003858;28;19921;-85
2023/04/02 07:44:22;;;;;;;;;;;5.60;99.90;;;;;;5020129;28;19909;-85
2023/04/02 07:46:48;;;;;;;;;;;5.60;99.90;;;;;;5003658;28;19964;-85
2023/04/02 07:49:14;;;;;;;;;;;5.70;99.90;;;;;;5037474;28;19996;-85
2023/04/02 07:51:39;;;;;;;;;;;5.60;99.90;;;;;;5037662;28;20278;-85
2023/04/02 07:54:08;;;;;;;;;;;5.60;99.90;;;;;;5011931;28;19913;-90
2023/04/02 07:56:35;;;;;;;;;;;5.60;99.90;;;;;;5010978;28;19913;-91
2023/04/02 07:59:00;;;;;;;;;;;5.60;99.90;;;;;;5010195;28;19921;-90
2023/04/02 08:01:26;;;;;;;;;;;5.60;99.90;;;;;;5041055;28;19924;-90
2023/04/02 08:03:53;;;;;;;;;;;5.60;99.90;;;;;;5041676;28;19910;-91
2023/04/02 08:06:18;;;;;;;;;;;5.60;99.90;;;;;;5041815;28;19980;-90
2023/04/02 08:08:44;;;;;;;;;;;5.60;99.90;;;;;;5042253;28;19967;-86
2023/04/02 08:11:10;;;;;;;;;;;5.60;99.90;;;;;;5002427;28;19913;-85
2023/04/02 08:13:36;;;;;;;;;;;5.60;99.90;;;;;;5037775;28;19932;-89
2023/04/02 08:16:02;;;;;;;;;;;5.60;99.90;;;;;;5020399;28;20007;-90
2023/04/02 08:18:28;;;;;;;;;;;5.60;99.90;;;;;;5004100;28;19928;-90
2023/04/02 08:20:54;;;;;;;;;;;5.60;99.90;;;;;;5019818;28;19996;-85
2023/04/02 08:23:21;;;;;;;;;;;5.50;99.90;;;;;;5002983;28;20036;-85
2023/04/02 08:25:47;;;;;;;;;;;5.60;99.90;;;;;;5037281;28;19999;-87
2023/04/02 08:28:12;;;;;;;;;;;5.60;99.90;;;;;;5019543;28;19971;-87
2023/04/02 08:30:38;;;;;;;;;;;5.60;99.90;;;;;;5019819;28;19909;-87
2023/04/02 08:33:04;;;;;;;;;;;5.60;99.90;;;;;;5019486;28;20231;-87
2023/04/02 08:35:30;;;;;;;;;;;5.60;99.90;;;;;;5003101;28;20021;-86
2023/04/02 08:37:55;;;;;;;;;;;5.60;99.90;;;;;;5019142;28;19991;-87
2023/04/02 08:40:23;;;;;;;;;;;5.60;99.90;;;;;;4999615;28;19936;-87
2023/04/02 08:43:09;;;;;;;;;;;5.60;99.90;;;;;;5000722;28;20003;-85
2023/04/02 08:45:54;;;;;;;;;;;5.60;99.90;;;;;;4991263;28;20401;-85
2023/04/02 08:48:20;;;;;;;;;;;5.60;99.90;;;;;;5032190;28;19908;-85
2023/04/02 08:50:45;;;;;;;;;;;5.60;99.90;;;;;;5033849;28;19908;-85
2023/04/02 08:53:14;;;;;;;;;;;5.60;99.90;;;;;;5063951;28;19910;-85
2023/04/02 08:56:04;;;;;;;;;;;5.60;99.90;;;;;;5032168;28;19920;-85
2023/04/02 08:58:40;;;;;;;;;;;5.60;99.90;;;;;;5047511;28;19910;-88
2023/04/02 09:01:10;;;;;;;;;;;5.60;99.90;;;;;;5016144;28;19920;-87
2023/04/02 09:03:39;;;;;;;;;;;5.70;99.90;;;;;;5016033;28;19917;-88
2023/04/02 09:06:08;;;;;;;;;;;5.70;99.90;;;;;;5016259;28;19910;-88
2023/04/02 09:08:34;;;;;;;;;;;5.70;99.90;;;;;;5016061;28;19917;-87
2023/04/02 09:11:00;;;;;;;;;;;5.80;99.90;;;;;;5015774;28;19909;-89
2023/04/02 09:13:27;;;;;;;;;;;5.80;99.90;;;;;;5032247;28;20361;-87
2023/04/02 09:16:12;;;;;;;;;;;5.70;99.90;;;;;;5015646;28;19976;-88
2023/04/02 09:18:38;;;;;;;;;;;5.90;99.90;;;;;;5015527;28;19963;-87
2023/04/02 09:21:29;;;;;;;;;;;5.90;99.90;;;;;;5015088;28;19924;-87
2023/04/02 09:23:54;;;;;;;;;;;6.00;99.90;;;;;;5016340;28;19910;-87
2023/04/02 09:26:22;;;;;;;;;;;6.00;99.90;;;;;;4998933;28;19921;-87
2023/04/02 09:28:51;;;;;;;;;;;6.00;99.90;;;;;;5014848;28;20000;-87
2023/04/02 09:31:43;;;;;;;;;;;6.10;99.90;;;;;;5015194;28;19911;-87
2023/04/02 09:34:28;;;;;;;;;;;6.00;99.90;;;;;;5010451;28;19949;-87
2023/04/02 09:36:54;;;;;;;;;;;6.10;99.90;;;;;;5015083;28;19913;-87
2023/04/02 09:39:22;;;;;;;;;;;6.10;99.90;;;;;;4998773;28;19913;-87
2023/04/02 09:41:48;;;;;;;;;;;6.10;99.90;;;;;;5014819;28;19910;-87
2023/04/02 09:44:22;;;;;;;;;;;6.10;99.90;;;;;;5014851;28;19917;-87
2023/04/02 09:47:02;;;;;;;;;;;6.10;99.90;;;;;;5031611;28;19909;-87
2023/04/02 09:49:38;;;;;;;;;;;6.10;99.90;;;;;;5015069;28;19928;-86
2023/04/02 09:52:10;;;;;;;;;;;6.20;99.90;;;;;;4998294;28;19909;-87
2023/04/02 09:54:40;;;;;;;;;;;6.30;99.90;;;;;;5030875;28;20269;-87
2023/04/02 09:57:17;;;;;;;;;;;6.30;99.90;;;;;;4998322;28;19920;-86
2023/04/02 09:59:42;;;;;;;;;;;6.30;99.90;;;;;;4999157;28;19952;-88
2023/04/02 10:02:22;;;;;;;;;;;6.40;99.90;;;;;;5015091;28;20425;-87
2023/04/02 10:04:48;;;;;;;;;;;6.30;99.90;;;;;;5016022;28;19916;-87
2023/04/02 10:07:36;;;;;;;;;;;6.40;99.90;;;;;;4985077;28;20370;-91
2023/04/02 10:10:13;;;;;;;;;;;6.40;99.90;;;;;;5001155;28;19956;-92
2023/04/02 10:12:40;;;;;;;;;;;6.40;99.90;;;;;;5018236;28;19960;-91
2023/04/02 10:15:13;;;;;;;;;;;6.40;99.90;;;;;;5017450;28;19897;-91
2023/04/02 10:17:39;;;;;;;;;;;6.50;99.90;;;;;;5065831;28;19916;-90
2023/04/02 10:20:25;;;;;;;;;;;6.50;99.90;;;;;;5031483;28;19997;-90
2023/04/02 10:22:50;;;;;;;;;;;6.50;99.90;;;;;;5026353;28;19925;-92
2023/04/02 10:34:32;;;;;;;;;;;6.40;99.90;;;;;;5035348;28;19917;-91
2023/04/02 10:37:02;;;;;;;;;;;6.40;99.90;;;;;;5018361;28;19963;-91
2023/04/02 10:39:28;;;;;;;;;;;6.40;99.90;;;;;;5017784;28;20286;-87
2023/04/02 10:42:08;;;;;;;;;;;6.40;99.90;;;;;;5031598;28;19909;-88
2023/04/02 10:44:36;;;;;;;;;;;6.40;99.90;;;;;;5007858;28;19913;-88
2023/04/02 10:47:29;;;;;;;;;;;6.50;99.90;;;;;;4998690;28;19910;-88
2023/04/02 10:49:58;;;;;;;;;;;6.50;99.90;;;;;;4989381;28;19959;-88
2023/04/02 10:52:29;;;;;;;;;;;6.60;99.90;;;;;;4997603;28;19909;-88
2023/04/02 10:55:02;;;;;;;;;;;6.60;99.90;;;;;;4997511;28;19959;-88
2023/04/02 10:57:39;;;;;;;;;;;6.70;99.90;;;;;;4998019;28;20266;-88
2023/04/02 11:00:08;;;;;;;;;;;6.80;99.90;;;;;;5015278;28;19910;-88
2023/04/02 11:02:53;;;;;;;;;;;6.90;99.90;;;;;;4997432;28;20418;-88
2023/04/02 11:05:22;;;;;;;;;;;7.00;99.90;;;;;;4997267;28;20011;-88
2023/04/02 11:07:51;;;;;;;;;;;7.10;99.90;;;;;;4997385;28;20321;-89
2023/04/02 11:10:18;;;;;;;;;;;7.10;99.90;;;;;;4997137;28;19917;-87
2023/04/02 11:12:54;;;;;;;;;;;7.20;99.90;;;;;;4996992;28;19910;-85
2023/04/02 11:15:20;;;;;;;;;;;7.30;99.90;;;;;;4996546;28;20013;-85
2023/04/02 11:17:46;;;;;;;;;;;7.40;99.90;;;;;;4996763;28;20378;-85
2023/04/02 11:20:30;;;;;;;;;;;7.50;99.90;;;;;;5014231;28;20313;-85
2023/04/02 11:23:25;;;;;;;;;;;7.50;99.90;;;;;;4990416;28;19948;-85
2023/04/02 11:26:12;;;;;;;;;;;7.50;99.90;;;;;;5020989;28;19914;-85
2023/04/02 11:28:38;;;;;;;;;;;7.60;99.90;;;;;;4997574;28;19917;-87
2023/04/02 11:31:03;;;;;;;;;;;7.70;99.90;;;;;;5000560;28;19921;-86
2023/04/02 11:33:40;;;;;;;;;;;7.80;99.90;;;;;;5000123;28;19914;-86
2023/04/02 11:36:25;;;;;;;;;;;7.80;99.90;;;;;;5000273;28;19920;-88
2023/04/02 11:38:51;;;;;;;;;;;7.90;99.90;;;;;;5000303;28;19916;-87
2023/04/02 11:41:35;;;;;;;;;;;7.90;99.90;;;;;;5003520;28;19910;-88
2023/04/02 11:44:02;;;;;;;;;;;8.00;99.90;;;;;;5002240;28;20263;-88
2023/04/02 11:46:27;;;;;;;;;;;8.00;99.90;;;;;;5000678;28;19921;-87
2023/04/02 11:48:54;;;;;;;;;;;8.10;99.90;;;;;;4997351;28;19917;-88
2023/04/02 11:51:19;;;;;;;;;;;8.10;99.90;;;;;;4997028;28;20019;-88
2023/04/02 11:53:45;;;;;;;;;;;8.20;99.90;;;;;;4996460;28;19949;-87
2023/04/02 11:56:18;;;;;;;;;;;8.30;99.90;;;;;;4996875;28;20410;-88
2023/04/02 11:59:00;;;;;;;;;;;8.30;99.90;;;;;;4996874;28;19910;-88
2023/04/02 12:01:53;;;;;;;;;;;8.40;99.90;;;;;;4997263;28;19915;-88
2023/04/02 12:04:52;;;;;;;;;;;8.50;99.90;;;;;;4997556;28;20047;-90
2023/04/02 12:07:17;;;;;;;;;;;8.60;99.90;;;;;;5008111;28;19909;-91
2023/04/02 12:09:50;;;;;;;;;;;8.70;99.90;;;;;;4997048;28;19929;-91
2023/04/02 12:12:27;;;;;;;;;;;8.80;99.90;;;;;;4998887;28;20004;-92
2023/04/02 12:14:56;;;;;;;;;;;8.90;99.90;;;;;;4997047;28;19917;-90
2023/04/02 12:17:25;;;;;;;;;;;8.90;99.90;;;;;;4999436;28;19910;-90
2023/04/02 12:19:56;;;;;;;;;;;9.00;99.90;;;;;;5001308;28;20354;-88
2023/04/02 12:22:23;;;;;;;;;;;9.00;99.90;;;;;;5000231;28;19953;-88
2023/04/02 12:24:49;;;;;;;;;;;9.10;99.90;;;;;;5000584;28;19916;-87
2023/04/02 12:27:23;;;;;;;;;;;9.10;99.90;;;;;;5016206;28;19968;-88
2023/04/02 12:29:50;;;;;;;;;;;9.20;99.90;;;;;;4999525;28;19964;-85
2023/04/02 12:32:19;;;;;;;;;;;9.20;99.90;;;;;;4999564;28;19913;-86
2023/04/02 12:34:45;;;;;;;;;;;9.30;99.90;;;;;;4999301;28;19909;-84
2023/04/02 12:37:18;;;;;;;;;;;9.30;99.90;;;;;;5000192;28;19910;-92
2023/04/02 12:39:50;;;;;;;;;;;9.40;99.90;;;;;;5000790;28;19910;-92
2023/04/02 12:42:26;;;;;;;;;;;9.50;99.90;;;;;;5000638;28;19962;-92
2023/04/02 12:44:52;;;;;;;;;;;9.50;99.90;;;;;;5000979;28;19917;-92
2023/04/02 12:47:18;;;;;;;;;;;9.60;99.90;;;;;;5000323;28;19913;-92
2023/04/02 12:49:43;;;;;;;;;;;9.70;99.90;;;;;;5000127;28;19963;-92
2023/04/02 12:52:11;;;;;;;;;;;9.70;99.90;;;;;;5000026;28;20350;-91
2023/04/02 12:54:43;;;;;;;;;;;9.80;99.90;;;;;;5000246;28;19932;-92
2023/04/02 12:57:21;;;;;;;;;;;9.90;99.90;;;;;;5000139;28;19909;-92
2023/04/02 12:59:47;;;;;;;;;;;9.90;99.90;;;;;;5000290;28;20054;-91
2023/04/02 13:02:20;;;;;;;;;;;10.00;99.90;;;;;;5002408;28;19932;-91
2023/04/02 13:04:48;;;;;;;;;;;10.00;99.90;;;;;;5002225;28;19920;-92
2023/04/02 13:07:16;;;;;;;;;;;10.10;99.90;;;;;;5001487;28;19964;-92
2023/04/02 13:09:46;;;;;;;;;;;10.10;99.90;;;;;;5000607;28;19913;-94
2023/04/02 13:12:26;;;;;;;;;;;10.10;99.90;;;;;;5003703;28;19941;-93
2023/04/02 13:14:53;;;;;;;;;;;10.20;99.90;;;;;;5000233;28;19910;-94
2023/04/02 13:17:37;;;;;;;;;;;10.30;99.90;;;;;;5000102;28;19914;-94
2023/04/02 13:20:22;;;;;;;;;;;10.30;99.90;;;;;;5000033;28;19910;-93
2023/04/02 13:22:47;;;;;;;;;;;10.30;99.90;;;;;;4999906;28;19921;-93
2023/04/02 13:25:14;;;;;;;;;;;10.40;99.90;;;;;;4999936;28;20339;-93
2023/04/02 13:27:40;;;;;;;;;;;10.40;99.90;;;;;;5000341;28;19917;-93
2023/04/02 13:30:07;;;;;;;;;;;10.50;99.90;;;;;;5002877;28;19917;-95
2023/04/02 13:32:33;;;;;;;;;;;10.60;99.90;;;;;;5010168;28;19909;-96
2023/04/02 13:34:59;;;;;;;;;;;10.60;99.90;;;;;;5008693;28;19909;-95
2023/04/02 13:37:27;;;;;;;;;;;10.70;99.90;;;;;;5012776;28;19909;-96
2023/04/02 13:40:02;;;;;;;;;;;10.80;99.90;;;;;;5032662;28;19917;-96
2023/04/02 13:42:31;;;;;;;;;;;10.90;99.90;;;;;;5030446;28;19905;-96
2023/04/02 13:44:57;;;;;;;;;;;10.90;99.90;;;;;;5023020;28;19908;-95
2023/04/02 13:47:59;;;;;;;;;;;;;;;;;;;;;
2023/04/02 13:56:08;;;;;;;;;;;11.10;99.90;;;;;;4937496;28;21978;-94
2023/04/02 13:58:34;;;;;;;;;;;11.20;99.90;;;;;;4924078;28;19910;-93
2023/04/02 14:01:00;;;;;;;;;;;11.30;99.90;;;;;;4902437;29;20360;-92
2023/04/02 14:03:26;;;;;;;;;;;11.30;99.90;;;;;;4887227;29;19915;-93
2023/04/02 14:06:10;;;;;;;;;;;11.30;99.90;;;;;;4902630;29;19935;-93
2023/04/02 14:08:42;;;;;;;;;;;11.40;99.90;;;;;;4902128;29;20361;-93
2023/04/02 14:11:20;;;;;;;;;;;11.40;99.90;;;;;;4902500;29;19911;-92
2023/04/02 14:13:49;;;;;;;;;;;11.50;99.90;;;;;;4902024;29;19911;-91
2023/04/02 14:16:35;;;;;;;;;;;11.60;99.90;;;;;;4904466;29;19912;-96
2023/04/02 14:19:05;;;;;;;;;;;11.70;99.90;;;;;;4910887;29;19912;-96
2023/04/02 14:21:30;;;;;;;;;;;11.80;99.90;;;;;;4912192;29;19926;-95
2023/04/02 14:23:59;;;;;;;;;;;11.80;99.90;;;;;;4906649;29;19912;-96
2023/04/02 14:26:46;;;;;;;;;;;11.90;99.90;;;;;;4908179;29;19911;-96
2023/04/02 14:29:35;;;;;;;;;;;12.00;99.90;;;;;;4905286;29;19922;-95
2023/04/02 14:32:04;;;;;;;;;;;12.00;99.90;;;;;;4897052;29;20324;-96
2023/04/02 14:34:30;;;;;;;;;;;12.00;99.90;;;;;;4909156;29;19963;-95
2023/04/02 14:36:56;;;;;;;;;;;12.10;99.90;;;;;;4914810;29;20010;-96
2023/04/02 14:39:34;;;;;;;;;;;12.10;99.90;;;;;;4910017;29;19912;-95
2023/04/02 14:42:13;;;;;;;;;;;12.10;99.90;;;;;;4911483;29;19918;-96
2023/04/02 14:44:42;;;;;;;;;;;12.10;99.90;;;;;;4910356;29;19919;-95
2023/04/02 14:47:28;;;;;;;;;;;12.20;99.90;;;;;;4907143;29;19915;-96
2023/04/02 14:49:56;;;;;;;;;;;12.20;99.90;;;;;;4908241;29;19956;-89
2023/04/02 14:52:22;;;;;;;;;;;12.20;99.90;;;;;;4916818;29;20305;-89
2023/04/02 14:54:53;;;;;;;;;;;12.20;99.90;;;;;;4860479;29;1898057;-89
2023/04/02 14:57:20;;;;;;;;;;;12.20;99.90;;;;;;4923472;29;19919;-89
2023/04/02 15:00:23;;;;;;;;;;;12.20;99.90;;;;;;4912750;29;19918;-89
2023/04/02 15:02:57;;;;;;;;;;;12.20;99.90;;;;;;4927243;29;19957;-91
2023/04/02 15:05:27;;;;;;;;;;;12.20;99.90;;;;;;4926118;29;19966;-89
2023/04/02 15:07:56;;;;;;;;;;;12.20;99.90;;;;;;4920765;29;19915;-94
2023/04/02 15:10:27;;;;;;;;;;;12.20;99.90;;;;;;4921307;29;19998;-94